Terminal Aerodrome Forecast
Issued by NWS

Home | Current Version | Previous Version | Text Only | Print | Product List | Glossary Off
Versions: 1 2 3 4 5 6 7 8 9 10 11 12 13 14 15 16 17 18 19 20

000
FTUS43 KMPX 171100
TAFAXN
TAF
KAXN 171137Z 1712/1812 36009KT P6SM SCT025 BKN040
     FM171500 34008KT P6SM SCT040
     FM172000 32009KT P6SM SKC
     FM180000 VRB02KT P6SM SCT250=

USA.gov is the U.S. government's official web portal to all federal, state and local government web resources and services.